Time;durP1;ratioP1;P1;durP2;ratioP2;P2;SDS_P1;SDS_P2;PMS_P1;PMS_P2;Temp;Humidity;BMP_temperature;BMP_pressure;BME280_temperature;BME280_humidity;BME280_pressure;Samples;Min_cycle;Max_cycle;Signal;HPM_P1;HPM_P2
2023/10/09 00:01:53;;;;;;;6.00;4.90;;;14.70;99.90;;;;;;5057211;28;20486;-78
2023/10/09 00:04:22;;;;;;;4.43;3.93;;;14.70;99.90;;;;;;5067882;28;20474;-87
2023/10/09 00:06:49;;;;;;;4.13;3.73;;;14.70;99.90;;;;;;5077513;28;20462;-87
2023/10/09 00:09:33;;;;;;;6.90;4.50;;;14.70;99.90;;;;;;5077838;28;20493;-87
2023/10/09 00:12:10;;;;;;;6.40;4.55;;;14.60;99.90;;;;;;5077542;28;20519;-88
2023/10/09 00:14:38;;;;;;;5.70;3.90;;;14.70;99.90;;;;;;5076389;28;20227;-78
2023/10/09 00:17:17;;;;;;;3.37;2.93;;;14.60;99.90;;;;;;5077268;28;20454;-78
2023/10/09 00:19:46;;;;;;;4.17;3.77;;;14.60;99.90;;;;;;5077504;28;20470;-88
2023/10/09 00:22:25;;;;;;;3.03;2.70;;;14.60;99.90;;;;;;5076813;28;20450;-78
2023/10/09 00:25:10;;;;;;;3.47;3.17;;;14.50;99.90;;;;;;5065031;28;21052;-78
2023/10/09 00:27:41;;;;;;;4.40;3.30;;;14.50;99.90;;;;;;5076851;28;20468;-90
2023/10/09 00:30:15;;;;;;;4.10;3.70;;;14.50;99.90;;;;;;5077210;28;20509;-89
2023/10/09 00:32:58;;;;;;;4.17;2.90;;;14.50;99.90;;;;;;5077157;28;20500;-87
2023/10/09 00:35:41;;;;;;;6.43;3.27;;;14.40;99.90;;;;;;5077056;28;20936;-87
2023/10/09 00:38:15;;;;;;;4.40;3.80;;;14.40;99.90;;;;;;5076272;28;20458;-86
2023/10/09 00:40:46;;;;;;;5.50;5.00;;;14.40;99.90;;;;;;5075075;28;20841;-77
2023/10/09 00:43:15;;;;;;;3.80;3.20;;;14.30;99.90;;;;;;5075654;28;20523;-84
2023/10/09 00:45:44;;;;;;;7.27;6.47;;;14.30;99.90;;;;;;5075674;28;20524;-77
2023/10/09 00:48:14;;;;;;;4.07;3.67;;;14.20;99.90;;;;;;5075888;28;20868;-77
2023/10/09 00:50:49;;;;;;;4.43;3.67;;;14.20;99.90;;;;;;5075738;28;20232;-77
2023/10/09 00:53:30;;;;;;;5.37;3.80;;;14.20;99.90;;;;;;5075608;28;20227;-77
2023/10/09 00:55:58;;;;;;;5.80;4.77;;;14.20;99.90;;;;;;5075600;28;20929;-86
2023/10/09 00:58:31;;;;;;;5.00;3.40;;;14.20;99.90;;;;;;5076357;28;20780;-77
2023/10/09 01:00:59;;;;;;;5.25;4.75;;;14.20;99.90;;;;;;5075815;28;20903;-86
2023/10/09 01:03:27;;;;;;;4.45;4.03;;;14.10;99.90;;;;;;5079400;28;20219;-86
2023/10/09 01:06:03;;;;;;;13.40;10.07;;;14.10;99.90;;;;;;5096117;28;20231;-85
2023/10/09 01:08:35;;;;;;;4.47;3.67;;;14.10;99.90;;;;;;5095600;28;20500;-87
2023/10/09 01:11:09;;;;;;;4.15;3.65;;;14.10;99.90;;;;;;5096049;28;20329;-78
2023/10/09 01:13:52;;;;;;;4.68;3.72;;;14.00;99.90;;;;;;5095695;28;20222;-88
2023/10/09 01:16:22;;;;;;;4.83;3.20;;;14.00;99.90;;;;;;5096399;28;20297;-84
2023/10/09 01:18:50;;;;;;;4.70;3.60;;;14.00;99.90;;;;;;5096072;28;20798;-77
2023/10/09 01:21:24;;;;;;;4.50;4.10;;;13.90;99.90;;;;;;5094986;28;20316;-86
2023/10/09 01:24:07;;;;;;;4.25;3.65;;;13.90;99.90;;;;;;5095707;28;20219;-86
2023/10/09 01:26:44;;;;;;;6.97;5.57;;;13.90;99.90;;;;;;5088292;28;20224;-86
2023/10/09 01:29:16;;;;;;;4.45;3.70;;;13.80;99.90;;;;;;5072515;28;20851;-86
2023/10/09 01:31:54;;;;;;;5.70;4.45;;;13.80;99.90;;;;;;5075868;28;20258;-87
2023/10/09 01:34:24;;;;;;;5.10;4.45;;;13.80;99.90;;;;;;5076130;28;20242;-87
2023/10/09 01:36:55;;;;;;;4.22;3.88;;;13.70;99.90;;;;;;5074754;28;20224;-86
2023/10/09 01:39:26;;;;;;;3.97;3.20;;;13.70;99.90;;;;;;5075224;28;20303;-77
2023/10/09 01:41:58;;;;;;;4.82;3.78;;;13.70;99.90;;;;;;5074608;28;20505;-77
2023/10/09 01:44:28;;;;;;;3.67;3.28;;;13.70;99.90;;;;;;5074983;28;20289;-77
2023/10/09 01:46:57;;;;;;;4.40;2.72;;;13.70;99.90;;;;;;5075156;28;20224;-78
2023/10/09 01:49:31;;;;;;;4.43;3.45;;;13.60;99.90;;;;;;5075041;28;20223;-77
2023/10/09 01:52:03;;;;;;;7.47;4.80;;;13.70;99.90;;;;;;5073719;28;20650;-77
2023/10/09 01:54:36;;;;;;;7.20;4.78;;;13.60;99.90;;;;;;5075257;28;20307;-86
2023/10/09 01:57:05;;;;;;;4.38;3.70;;;13.60;99.90;;;;;;5074958;28;20230;-77
2023/10/09 01:59:36;;;;;;;3.72;3.40;;;13.70;99.90;;;;;;5074632;28;20240;-87
2023/10/09 02:02:12;;;;;;;3.25;2.95;;;13.70;99.90;;;;;;5072840;28;20234;-77
2023/10/09 02:04:41;;;;;;;4.47;4.00;;;13.70;99.90;;;;;;5074429;28;20744;-87
2023/10/09 02:07:08;;;;;;;3.90;3.55;;;13.70;99.90;;;;;;5073636;28;20563;-76
2023/10/09 02:09:44;;;;;;;4.30;3.45;;;13.70;99.90;;;;;;5064235;28;20220;-76
2023/10/09 02:12:12;;;;;;;5.43;4.82;;;13.70;99.90;;;;;;5074133;28;20254;-78
2023/10/09 02:14:41;;;;;;;3.67;3.25;;;13.70;99.90;;;;;;5075537;28;20287;-86
2023/10/09 02:17:17;;;;;;;3.90;3.50;;;13.70;99.90;;;;;;5073679;28;20243;-77
2023/10/09 02:19:48;;;;;;;5.32;4.70;;;13.70;99.90;;;;;;5075095;28;20496;-87
2023/10/09 02:22:16;;;;;;;5.65;3.95;;;13.70;99.90;;;;;;5075213;28;20223;-87
2023/10/09 02:24:57;;;;;;;6.10;4.07;;;13.70;99.90;;;;;;5075427;28;20256;-87
2023/10/09 02:30:17;;;;;;;3.38;3.08;;;13.70;99.90;;;;;;5073839;28;20404;-78
2023/10/09 02:32:53;;;;;;;3.75;3.40;;;13.70;99.90;;;;;;5074599;28;20230;-88
2023/10/09 02:35:37;;;;;;;5.82;4.82;;;13.60;99.90;;;;;;5073965;28;20349;-88
2023/10/09 02:38:14;;;;;;;13.82;11.45;;;13.60;99.90;;;;;;5073674;28;20228;-78
2023/10/09 02:41:04;;;;;;;5.78;5.15;;;13.60;99.90;;;;;;5073604;28;20247;-78
2023/10/09 02:43:44;;;;;;;4.18;3.25;;;13.60;99.90;;;;;;5073499;28;20311;-78
2023/10/09 02:46:14;;;;;;;13.55;9.68;;;13.60;99.90;;;;;;5060863;28;20220;-77
2023/10/09 02:48:45;;;;;;;9.82;7.15;;;13.60;99.90;;;;;;5074180;28;20220;-87
2023/10/09 02:51:21;;;;;;;5.18;4.68;;;13.60;99.90;;;;;;5073339;28;20223;-78
2023/10/09 02:53:49;;;;;;;4.88;3.45;;;13.60;99.90;;;;;;5072666;28;20235;-78
2023/10/09 02:56:23;;;;;;;6.10;4.07;;;13.50;99.90;;;;;;5073561;28;20224;-86
2023/10/09 02:58:51;;;;;;;6.13;5.43;;;13.50;99.90;;;;;;5072959;28;20228;-77
2023/10/09 03:01:18;;;;;;;5.75;4.15;;;13.50;99.90;;;;;;5072939;28;20227;-87
2023/10/09 03:03:46;;;;;;;5.80;4.20;;;13.50;99.90;;;;;;5073008;28;20228;-78
2023/10/09 03:06:26;;;;;;;5.00;4.00;;;13.40;99.90;;;;;;5072732;28;20220;-86
2023/10/09 03:08:54;;;;;;;6.20;4.10;;;13.40;99.90;;;;;;5072334;28;20636;-77
2023/10/09 03:11:23;;;;;;;4.50;4.00;;;13.40;99.90;;;;;;5073357;28;20305;-77
2023/10/09 03:13:52;;;;;;;6.90;5.90;;;13.50;99.90;;;;;;5072644;28;20228;-78
2023/10/09 03:16:20;;;;;;;6.07;5.00;;;13.40;99.90;;;;;;5073489;28;20228;-87
2023/10/09 03:18:48;;;;;;;6.43;4.45;;;13.40;99.90;;;;;;5073560;28;20305;-78
2023/10/09 03:21:17;;;;;;;6.75;4.22;;;13.40;99.90;;;;;;5073296;28;20212;-87
2023/10/09 03:23:45;;;;;;;6.72;5.55;;;13.40;99.90;;;;;;5073112;28;20278;-86
2023/10/09 03:26:12;;;;;;;4.80;3.83;;;13.40;99.90;;;;;;5073014;28;20223;-87
2023/10/09 03:28:43;;;;;;;8.65;6.50;;;13.40;99.90;;;;;;5072691;28;20228;-78
2023/10/09 03:31:10;;;;;;;4.15;3.22;;;13.40;99.90;;;;;;5072547;28;20232;-87
2023/10/09 03:33:36;;;;;;;9.77;5.38;;;13.40;99.90;;;;;;5073127;28;20303;-87
2023/10/09 03:36:09;;;;;;;6.25;4.00;;;13.40;99.90;;;;;;5072768;28;20232;-78
2023/10/09 03:38:36;;;;;;;4.80;3.72;;;13.40;99.90;;;;;;5072776;28;20364;-78
2023/10/09 03:41:07;;;;;;;4.05;3.40;;;13.40;99.90;;;;;;5061274;28;20308;-78
2023/10/09 03:43:38;;;;;;;6.10;4.22;;;13.40;99.90;;;;;;5072688;28;20223;-78
2023/10/09 03:46:20;;;;;;;4.15;3.55;;;13.40;99.90;;;;;;5072882;28;20732;-78
2023/10/09 03:48:47;;;;;;;4.45;3.90;;;13.50;99.90;;;;;;5073205;28;20220;-86
2023/10/09 03:51:21;;;;;;;4.18;3.75;;;13.40;99.90;;;;;;5072303;28;20235;-78
2023/10/09 03:53:49;;;;;;;6.80;5.28;;;13.40;99.90;;;;;;5072005;28;20303;-78
2023/10/09 03:56:17;;;;;;;9.75;6.20;;;13.40;99.90;;;;;;5071932;28;20310;-78
2023/10/09 03:58:46;;;;;;;4.72;4.32;;;13.50;99.90;;;;;;5072620;28;20231;-86
2023/10/09 04:01:27;;;;;;;4.03;3.27;;;13.40;99.90;;;;;;5072293;28;20341;-78
2023/10/09 04:03:55;;;;;;;6.15;5.20;;;13.40;99.90;;;;;;5071429;28;20462;-79
2023/10/09 04:06:23;;;;;;;4.78;3.47;;;13.40;99.90;;;;;;5072082;28;20232;-78
2023/10/09 04:08:51;;;;;;;4.63;3.65;;;13.40;99.90;;;;;;5072493;28;20306;-86
2023/10/09 04:11:22;;;;;;;4.38;3.45;;;13.40;99.90;;;;;;5071904;28;20234;-86
2023/10/09 04:13:52;;;;;;;5.13;4.53;;;13.30;99.90;;;;;;5072628;28;20231;-86
2023/10/09 04:16:35;;;;;;;5.18;3.50;;;13.30;99.90;;;;;;5071870;28;20674;-77
2023/10/09 04:19:11;;;;;;;3.80;3.20;;;13.30;99.90;;;;;;5061395;28;20212;-86
2023/10/09 04:21:37;;;;;;;4.93;3.30;;;13.30;99.90;;;;;;5072621;28;20864;-87
2023/10/09 04:24:23;;;;;;;5.07;3.17;;;13.30;99.90;;;;;;5072848;28;20212;-87
2023/10/09 04:27:06;;;;;;;8.23;3.85;;;13.30;99.90;;;;;;5072058;28;20554;-87
2023/10/09 04:29:38;;;;;;;5.93;3.85;;;13.30;99.90;;;;;;5055847;28;20223;-78
2023/10/09 04:32:15;;;;;;;4.75;4.25;;;13.30;99.90;;;;;;5070480;28;20224;-87
2023/10/09 04:34:48;;;;;;;7.75;3.35;;;13.30;99.90;;;;;;5070531;28;20286;-78
2023/10/09 04:37:36;;;;;;;3.92;3.63;;;13.30;99.90;;;;;;5070095;28;20264;-78
2023/10/09 04:40:12;;;;;;;4.85;3.78;;;13.30;99.90;;;;;;5069147;28;20216;-87
2023/10/09 04:42:38;;;;;;;5.00;4.43;;;13.30;99.90;;;;;;5072907;28;20247;-87
2023/10/09 04:48:09;;;;;;;7.75;4.40;;;13.30;99.90;;;;;;5077059;28;20543;-86
2023/10/09 04:51:20;;;;;;;4.32;3.92;;;13.20;99.90;;;;;;5076493;28;20228;-77
2023/10/09 04:53:43;;;;;;;5.38;4.20;;;13.20;99.90;;;;;;5064499;28;20324;-77
2023/10/09 04:56:15;;;;;;;3.63;3.30;;;13.20;99.90;;;;;;5074303;28;20223;-78
2023/10/09 04:58:43;;;;;;;3.75;3.33;;;13.20;99.90;;;;;;5074501;28;20224;-78
2023/10/09 05:01:14;;;;;;;4.25;3.65;;;13.20;99.90;;;;;;5075872;28;20224;-78
2023/10/09 05:03:52;;;;;;;4.47;3.55;;;13.20;99.90;;;;;;5074687;28;20601;-86
2023/10/09 05:06:21;;;;;;;4.90;4.40;;;13.20;99.90;;;;;;5076027;28;20546;-77
2023/10/09 05:08:49;;;;;;;4.95;4.55;;;13.20;99.90;;;;;;5074620;28;20235;-77
2023/10/09 05:14:11;;;;;;;4.80;3.40;;;13.20;99.90;;;;;;5074661;28;20219;-86
2023/10/09 05:16:48;;;;;;;4.88;4.30;;;13.20;99.90;;;;;;5075424;28;20563;-85
2023/10/09 05:19:41;;;;;;;5.82;3.75;;;13.10;99.90;;;;;;5074640;28;20281;-78
2023/10/09 05:22:16;;;;;;;4.93;4.43;;;13.10;99.90;;;;;;5065315;28;20314;-78
2023/10/09 05:24:46;;;;;;;3.92;3.55;;;13.10;99.90;;;;;;5061135;28;20225;-78
2023/10/09 05:27:18;;;;;;;5.05;4.18;;;13.20;99.90;;;;;;5075061;28;20317;-78
2023/10/09 05:30:12;;;;;;;5.28;4.75;;;13.20;99.90;;;;;;5073012;28;20236;-78
2023/10/09 05:32:48;;;;;;;6.55;4.25;;;13.20;99.90;;;;;;5054205;28;20308;-78
2023/10/09 05:35:15;;;;;;;4.03;3.63;;;13.20;99.90;;;;;;5055112;28;20577;-78
2023/10/09 05:37:45;;;;;;;4.78;4.30;;;13.20;99.90;;;;;;5053700;28;20217;-78
2023/10/09 05:40:23;;;;;;;4.57;3.58;;;13.20;99.90;;;;;;5054470;28;20237;-78
2023/10/09 05:42:59;;;;;;;3.83;3.53;;;13.20;99.90;;;;;;5054822;28;20364;-87
2023/10/09 05:51:12;;;;;;;9.10;4.10;;;13.20;99.90;;;;;;5053621;28;20221;-78
2023/10/09 06:04:53;;;;;;;5.45;4.60;;;13.20;99.90;;;;;;5058156;28;20693;-86
2023/10/09 06:07:40;;;;;;;7.80;5.28;;;13.10;99.90;;;;;;5056499;28;20224;-86
2023/10/09 06:10:17;;;;;;;5.50;5.00;;;13.10;99.90;;;;;;5056505;28;20225;-87
2023/10/09 06:13:03;;;;;;;4.53;4.13;;;13.10;99.90;;;;;;5056050;28;20879;-87
2023/10/09 06:16:01;;;;;;;5.85;4.25;;;13.10;99.90;;;;;;5054162;28;20228;-86
2023/10/09 06:18:32;;;;;;;6.65;4.97;;;13.10;99.90;;;;;;5056239;28;20221;-87
2023/10/09 06:21:39;;;;;;;5.60;4.53;;;13.20;99.90;;;;;;5058889;28;20220;-87
2023/10/09 06:24:16;;;;;;;5.80;5.05;;;13.10;99.90;;;;;;5053928;28;20227;-79
2023/10/09 06:27:08;;;;;;;5.57;5.07;;;13.10;99.90;;;;;;5055235;28;20224;-87
2023/10/09 06:29:36;;;;;;;6.25;4.97;;;13.20;99.90;;;;;;5053624;28;20607;-79
2023/10/09 06:32:34;;;;;;;7.70;5.38;;;13.20;99.90;;;;;;5053049;28;20278;-78
2023/10/09 06:43:28;;;;;;;4.63;4.20;;;13.30;99.90;;;;;;5054827;28;20306;-87
2023/10/09 06:46:37;;;;;;;5.30;4.70;;;13.30;99.90;;;;;;5053023;28;20229;-87
2023/10/09 06:51:41;;;;;;;6.30;4.45;;;13.40;99.90;;;;;;5052532;28;20232;-79
2023/10/09 06:54:14;;;;;;;8.82;4.28;;;13.40;99.90;;;;;;5053521;28;20286;-85
2023/10/09 06:59:41;;;;;;;6.47;3.72;;;13.40;99.90;;;;;;5053442;28;20231;-87
2023/10/09 07:04:54;;;;;;;4.40;4.00;;;13.40;99.90;;;;;;5052451;28;20236;-78
2023/10/09 07:07:24;;;;;;;4.10;3.70;;;13.40;99.90;;;;;;5052735;28;20221;-78
2023/10/09 07:12:44;;;;;;;6.28;4.10;;;13.50;99.90;;;;;;5052227;28;20553;-87
2023/10/09 07:18:18;;;;;;;4.07;3.53;;;13.50;99.90;;;;;;5053151;28;20227;-87
2023/10/09 07:20:58;;;;;;;4.30;3.58;;;13.50;99.90;;;;;;5052256;28;20252;-79
2023/10/09 07:23:28;;;;;;;6.05;5.28;;;13.50;99.90;;;;;;5053506;28;20224;-78
2023/10/09 07:26:47;;;;;;;5.43;4.80;;;13.50;99.90;;;;;;5042364;28;20282;-78
2023/10/09 07:29:47;;;;;;;6.45;4.30;;;13.60;99.90;;;;;;4963008;28;20632;-78
2023/10/09 07:32:20;;;;;;;10.30;5.47;;;13.50;99.90;;;;;;4992189;28;20255;-88
2023/10/09 07:34:58;;;;;;;5.88;5.38;;;13.50;99.90;;;;;;5046613;28;20232;-87
2023/10/09 07:37:30;;;;;;;5.68;4.90;;;13.50;99.90;;;;;;5051924;28;20228;-79
2023/10/09 07:40:07;;;;;;;4.28;3.97;;;13.60;99.90;;;;;;5052821;28;20303;-87
2023/10/09 07:42:52;;;;;;;6.00;4.68;;;13.60;99.90;;;;;;5033336;28;20655;-78
2023/10/09 07:48:04;;;;;;;8.93;3.80;;;13.70;99.90;;;;;;5051704;28;20228;-78
2023/10/09 07:50:48;;;;;;;4.47;3.58;;;13.70;99.90;;;;;;5051635;28;20949;-87
2023/10/09 07:53:25;;;;;;;5.15;4.32;;;13.70;99.90;;;;;;5052928;28;20625;-87
2023/10/09 07:55:58;;;;;;;5.00;4.25;;;13.70;99.90;;;;;;5052375;28;20259;-79
2023/10/09 07:58:26;;;;;;;4.35;3.60;;;13.70;99.90;;;;;;5052599;28;20251;-78
2023/10/09 08:01:07;;;;;;;6.78;4.78;;;13.70;99.90;;;;;;5053279;28;20221;-87
2023/10/09 08:03:45;;;;;;;;;;;;;;;;;;;;;
2023/10/09 08:12:13;;;;;;;6.73;4.70;;;13.80;99.90;;;;;;5052220;28;20516;-78
2023/10/09 08:14:45;;;;;;;4.97;3.75;;;13.80;99.90;;;;;;5052086;28;20505;-78
2023/10/09 08:17:16;;;;;;;5.45;4.03;;;13.80;99.90;;;;;;5052668;28;20220;-88
2023/10/09 08:19:54;;;;;;;7.38;4.35;;;13.80;99.90;;;;;;5045394;28;20243;-87
2023/10/09 08:25:26;;;;;;;6.60;4.10;;;13.80;99.90;;;;;;5055610;28;20521;-77
2023/10/09 08:27:55;;;;;;;5.38;3.47;;;13.80;99.90;;;;;;5046187;28;20475;-77
2023/10/09 08:30:41;;;;;;;4.10;3.78;;;13.90;99.90;;;;;;5043351;28;20229;-78
2023/10/09 08:36:09;;;;;;;8.60;4.37;;;13.90;99.90;;;;;;5055812;28;20477;-77
2023/10/09 08:38:44;;;;;;;5.45;4.35;;;13.90;99.90;;;;;;5046563;28;20842;-86
2023/10/09 08:41:17;;;;;;;5.77;4.40;;;13.90;99.90;;;;;;5054641;28;20655;-77
2023/10/09 08:43:51;;;;;;;4.57;3.63;;;14.00;99.90;;;;;;5057133;28;20467;-86
2023/10/09 08:46:26;;;;;;;5.60;5.20;;;14.00;99.90;;;;;;5055958;28;21025;-79
2023/10/09 08:48:58;;;;;;;5.20;4.70;;;13.90;99.90;;;;;;5056181;28;20225;-77
2023/10/09 08:51:29;;;;;;;5.20;4.70;;;13.90;99.90;;;;;;5056006;28;20548;-86
2023/10/09 08:53:59;;;;;;;4.10;3.70;;;13.90;99.90;;;;;;5056322;28;20553;-87
2023/10/09 08:56:27;;;;;;;5.07;4.65;;;13.90;99.90;;;;;;5038451;28;20225;-88
2023/10/09 08:58:57;;;;;;;6.90;4.23;;;13.90;99.90;;;;;;5055430;28;20224;-77
2023/10/09 09:01:25;;;;;;;5.37;4.87;;;13.90;99.90;;;;;;5055737;28;20799;-86
2023/10/09 09:04:00;;;;;;;4.32;3.92;;;13.90;99.90;;;;;;5047265;28;20479;-77
2023/10/09 09:06:30;;;;;;;8.43;4.93;;;13.90;99.90;;;;;;5055430;28;20221;-86
2023/10/09 09:09:13;;;;;;;7.68;4.00;;;13.90;99.90;;;;;;5052082;28;20224;-77
2023/10/09 09:11:48;;;;;;;4.40;4.00;;;13.90;99.90;;;;;;5055716;28;20227;-86
2023/10/09 09:14:21;;;;;;;4.30;3.90;;;13.90;99.90;;;;;;5055831;28;20311;-86
2023/10/09 09:16:49;;;;;;;5.85;3.90;;;13.90;99.90;;;;;;5054410;28;20224;-77
2023/10/09 09:19:20;;;;;;;5.53;5.00;;;13.90;99.90;;;;;;5056017;28;20247;-88
2023/10/09 09:21:56;;;;;;;4.40;4.00;;;13.90;99.90;;;;;;5055450;28;20467;-86
2023/10/09 09:24:30;;;;;;;4.70;3.63;;;13.90;99.90;;;;;;5055377;28;20479;-78
2023/10/09 09:27:09;;;;;;;4.85;3.60;;;13.90;99.90;;;;;;5056615;28;20467;-86
2023/10/09 09:29:41;;;;;;;5.60;4.10;;;13.90;99.90;;;;;;5055434;28;20232;-78
2023/10/09 09:32:17;;;;;;;5.87;4.60;;;14.00;99.90;;;;;;5076085;28;20462;-78
2023/10/09 09:34:54;;;;;;;6.20;5.57;;;14.00;99.90;;;;;;5075098;28;20550;-86
2023/10/09 09:37:28;;;;;;;5.40;4.57;;;14.10;99.90;;;;;;5075123;28;20490;-78
2023/10/09 09:39:57;;;;;;;8.13;4.83;;;14.10;99.90;;;;;;5075143;28;20578;-86
2023/10/09 09:42:27;;;;;;;7.57;5.10;;;14.10;99.90;;;;;;5064536;28;20547;-78
2023/10/09 09:44:57;;;;;;;48.13;12.60;;;14.10;99.90;;;;;;5074688;28;20474;-88
2023/10/09 09:47:27;;;;;;;17.00;7.33;;;14.10;99.90;;;;;;5075145;28;20466;-77
2023/10/09 09:50:00;;;;;;;29.13;10.20;;;14.10;99.90;;;;;;5074459;28;20466;-77
2023/10/09 09:52:39;;;;;;;54.07;12.90;;;14.10;99.90;;;;;;5074770;28;20472;-77
2023/10/09 09:55:14;;;;;;;18.67;8.03;;;14.20;99.90;;;;;;5075026;28;20545;-86
2023/10/09 09:57:51;;;;;;;23.70;9.00;;;14.20;99.90;;;;;;5074496;28;20465;-79
2023/10/09 10:00:30;;;;;;;22.13;7.50;;;14.20;99.90;;;;;;5075062;28;20469;-78
2023/10/09 10:03:03;;;;;;;17.10;5.43;;;14.20;99.90;;;;;;5074942;28;20462;-78
2023/10/09 10:05:36;;;;;;;392.53;71.30;;;14.20;99.90;;;;;;5074407;28;20239;-78
2023/10/09 10:08:04;;;;;;;131.27;24.30;;;14.20;99.90;;;;;;5074250;28;20473;-78
2023/10/09 10:10:39;;;;;;;26.00;10.43;;;14.20;99.90;;;;;;5074045;28;20454;-77
2023/10/09 10:13:14;;;;;;;12.07;6.33;;;14.20;99.90;;;;;;5074132;28;20457;-77
2023/10/09 10:16:19;;;;;;;7.57;5.83;;;14.20;99.90;;;;;;5073899;28;20849;-79
2023/10/09 10:19:06;;;;;;;9.83;7.30;;;14.20;99.90;;;;;;5073905;28;20537;-87
2023/10/09 10:21:41;;;;;;;9.37;5.73;;;14.20;99.90;;;;;;5073032;28;20470;-79
2023/10/09 10:24:54;;;;;;;7.73;5.20;;;14.20;99.90;;;;;;5074315;28;20481;-78
2023/10/09 10:27:27;;;;;;;5.40;4.73;;;14.30;99.90;;;;;;5075063;28;20462;-85
2023/10/09 10:30:31;;;;;;;4.88;4.47;;;14.30;99.90;;;;;;5073753;28;20466;-77
2023/10/09 10:33:09;;;;;;;5.03;4.53;;;14.30;99.90;;;;;;5071725;28;20223;-78
2023/10/09 10:35:45;;;;;;;5.73;5.20;;;14.30;99.90;;;;;;5073867;28;20474;-78
2023/10/09 10:38:44;;;;;;;53.97;13.57;;;14.20;99.90;;;;;;5074279;28;20944;-84
2023/10/09 10:41:22;;;;;;;71.73;14.27;;;14.20;99.90;;;;;;5027573;28;20547;-77
2023/10/09 10:44:00;;;;;;;31.90;9.80;;;14.20;99.90;;;;;;5072917;28;21022;-86
2023/10/09 10:46:40;;;;;;;17.50;6.63;;;14.10;99.90;;;;;;5074332;28;20549;-87
2023/10/09 10:49:20;;;;;;;5.73;5.07;;;14.10;99.90;;;;;;5078486;28;20462;-87
2023/10/09 10:51:49;;;;;;;7.43;5.13;;;14.20;99.90;;;;;;5075171;28;20994;-77
2023/10/09 10:57:19;;;;;;;9.10;6.10;;;14.20;99.90;;;;;;5071835;28;20466;-78
2023/10/09 10:59:49;;;;;;;8.30;5.53;;;14.20;99.90;;;;;;5074545;28;20458;-78
2023/10/09 11:02:27;;;;;;;7.27;6.57;;;14.20;99.90;;;;;;5072943;28;21196;-78
2023/10/09 11:05:14;;;;;;;4.90;4.13;;;14.20;99.90;;;;;;5073321;28;20466;-78
2023/10/09 11:07:49;;;;;;;5.30;4.87;;;14.20;99.90;;;;;;5073004;28;20458;-78
2023/10/09 11:10:28;;;;;;;6.13;4.47;;;14.30;99.90;;;;;;5073071;28;20464;-86
2023/10/09 11:15:57;;;;;;;6.20;4.40;;;14.30;99.90;;;;;;5072702;28;20795;-77
2023/10/09 11:18:27;;;;;;;9.07;6.00;;;14.40;99.90;;;;;;5074744;28;20455;-86
2023/10/09 11:21:25;;;;;;;8.73;5.97;;;14.40;99.90;;;;;;5073535;28;20470;-78
2023/10/09 11:24:24;;;;;;;10.30;5.10;;;14.30;99.90;;;;;;5072297;28;20451;-78
2023/10/09 11:26:55;;;;;;;6.00;5.40;;;14.30;99.90;;;;;;5074831;28;20462;-87
2023/10/09 11:32:17;;;;;;;6.17;5.67;;;14.30;99.90;;;;;;5038644;28;21026;-87
2023/10/09 11:34:51;;;;;;;6.20;5.60;;;14.30;99.90;;;;;;5054067;28;21000;-79
2023/10/09 11:37:38;;;;;;;5.83;5.33;;;14.30;99.90;;;;;;5052671;28;20461;-78
2023/10/09 11:40:22;;;;;;;8.50;5.30;;;14.30;99.90;;;;;;5052948;28;20469;-78
2023/10/09 11:42:57;;;;;;;6.90;6.30;;;14.40;99.90;;;;;;5053515;28;20495;-87
2023/10/09 11:45:25;;;;;;;7.23;5.70;;;14.40;99.90;;;;;;5054269;28;20532;-87
2023/10/09 11:47:57;;;;;;;8.13;6.80;;;14.50;99.90;;;;;;5059422;28;20464;-87
2023/10/09 11:50:43;;;;;;;18.50;9.33;;;14.50;99.90;;;;;;5053668;28;20458;-88
2023/10/09 11:53:19;;;;;;;10.43;6.57;;;14.60;99.90;;;;;;5058751;28;20811;-88
2023/10/09 11:55:48;;;;;;;12.63;6.37;;;14.60;99.90;;;;;;5048684;28;20478;-88
2023/10/09 11:58:22;;;;;;;7.40;6.03;;;14.70;99.90;;;;;;5052058;28;20474;-89
2023/10/09 12:00:56;;;;;;;9.13;6.07;;;14.70;99.90;;;;;;5048210;28;20463;-88
2023/10/09 12:03:28;;;;;;;6.50;5.77;;;14.70;99.90;;;;;;5052517;28;20463;-79
2023/10/09 12:06:04;;;;;;;7.27;6.37;;;14.80;99.90;;;;;;5052420;28;20486;-78
2023/10/09 12:08:31;;;;;;;8.10;7.30;;;14.90;99.90;;;;;;5051966;28;20505;-87
2023/10/09 12:11:11;;;;;;;7.10;6.40;;;14.80;99.90;;;;;;5055969;28;20571;-88
2023/10/09 12:13:42;;;;;;;6.67;6.10;;;14.90;99.90;;;;;;5045496;28;20453;-86
2023/10/09 12:16:11;;;;;;;6.60;6.00;;;14.80;99.90;;;;;;5048127;28;20900;-89
2023/10/09 12:18:39;;;;;;;8.53;7.20;;;14.80;99.90;;;;;;5062822;28;20537;-80
2023/10/09 12:21:15;;;;;;;13.93;6.40;;;14.90;99.90;;;;;;5050898;28;20521;-79
2023/10/09 12:23:44;;;;;;;10.30;7.10;;;14.80;99.90;;;;;;5050973;28;20454;-78
2023/10/09 12:26:14;;;;;;;10.80;6.80;;;14.90;99.90;;;;;;5054598;28;20546;-87
2023/10/09 12:28:45;;;;;;;7.33;6.63;;;14.90;99.90;;;;;;5070051;28;20979;-87
2023/10/09 12:31:14;;;;;;;6.83;6.23;;;14.90;99.90;;;;;;5074573;28;20672;-87
2023/10/09 12:33:42;;;;;;;7.20;6.57;;;14.90;99.90;;;;;;5067663;28;20469;-87
2023/10/09 12:36:19;;;;;;;8.57;7.83;;;14.90;99.90;;;;;;5069174;28;20482;-86
2023/10/09 12:38:50;;;;;;;7.97;7.37;;;14.90;99.90;;;;;;5055069;28;20519;-87
2023/10/09 12:41:20;;;;;;;7.77;7.10;;;15.00;99.90;;;;;;5060454;28;20868;-88
2023/10/09 12:43:48;;;;;;;7.40;6.50;;;15.00;99.90;;;;;;5071246;28;20514;-88
2023/10/09 12:46:17;;;;;;;7.20;6.60;;;15.10;99.90;;;;;;5071616;28;20528;-87
2023/10/09 12:48:46;;;;;;;8.03;7.33;;;15.10;99.90;;;;;;5070133;28;20475;-87
2023/10/09 12:51:16;;;;;;;7.70;7.00;;;15.10;99.90;;;;;;5069940;28;20478;-87
2023/10/09 12:53:43;;;;;;;8.93;7.97;;;15.10;99.90;;;;;;5071078;28;20781;-87
2023/10/09 12:56:12;;;;;;;7.93;7.33;;;15.00;99.90;;;;;;5067393;28;21028;-87
2023/10/09 12:58:52;;;;;;;9.53;8.63;;;15.10;99.90;;;;;;5068707;28;20474;-88
2023/10/09 13:01:23;;;;;;;9.80;7.60;;;15.10;99.90;;;;;;5062637;28;20478;-79
2023/10/09 13:03:54;;;;;;;9.27;8.37;;;15.10;99.90;;;;;;5052753;28;20470;-88
2023/10/09 13:06:30;;;;;;;7.13;6.43;;;15.10;99.90;;;;;;5072093;28;20474;-88
2023/10/09 13:08:59;;;;;;;8.60;7.80;;;15.10;99.90;;;;;;5060633;28;20485;-88
2023/10/09 13:11:28;;;;;;;8.93;8.23;;;15.10;99.90;;;;;;5057898;28;20474;-87
2023/10/09 13:13:59;;;;;;;11.33;9.20;;;15.10;99.90;;;;;;5061910;28;20473;-78
2023/10/09 13:16:27;;;;;;;9.10;8.17;;;15.10;99.90;;;;;;5071278;28;20565;-85
2023/10/09 13:18:59;;;;;;;8.47;7.67;;;15.10;99.90;;;;;;5060863;28;20975;-86
2023/10/09 13:21:39;;;;;;;9.47;8.47;;;15.10;99.90;;;;;;5073876;28;20478;-88
2023/10/09 13:24:12;;;;;;;10.10;9.20;;;15.20;99.90;;;;;;5066057;28;20569;-86
2023/10/09 13:26:44;;;;;;;8.80;7.87;;;15.20;99.90;;;;;;5066102;28;20465;-88
2023/10/09 13:29:12;;;;;;;9.30;8.40;;;15.20;99.90;;;;;;5073835;28;20466;-86
2023/10/09 13:31:46;;;;;;;9.97;9.10;;;15.10;99.90;;;;;;5073235;28;20474;-86
2023/10/09 13:34:15;;;;;;;11.83;10.70;;;15.10;99.90;;;;;;5076678;28;20469;-85
2023/10/09 13:36:50;;;;;;;11.23;10.13;;;15.10;99.90;;;;;;5072957;28;20497;-85
2023/10/09 13:39:22;;;;;;;12.20;11.03;;;15.10;99.90;;;;;;5073429;28;20549;-76
2023/10/09 13:41:55;;;;;;;10.67;9.77;;;15.00;99.90;;;;;;5075524;28;20781;-76
2023/10/09 13:44:29;;;;;;;10.93;9.93;;;15.00;99.90;;;;;;5072195;28;20485;-86
2023/10/09 13:47:01;;;;;;;13.70;12.47;;;15.00;99.90;;;;;;5072586;28;20464;-90
2023/10/09 13:49:31;;;;;;;10.80;9.87;;;15.00;99.90;;;;;;5061203;28;20539;-78
2023/10/09 13:52:01;;;;;;;10.60;9.37;;;14.90;99.90;;;;;;5076439;28;20454;-91
2023/10/09 13:54:41;;;;;;;11.00;9.87;;;14.90;99.90;;;;;;5072492;28;20550;-78
2023/10/09 13:57:10;;;;;;;11.43;10.43;;;14.90;99.90;;;;;;5074656;28;20458;-76
2023/10/09 13:59:42;;;;;;;11.00;10.10;;;14.90;99.90;;;;;;5074244;28;20474;-77
2023/10/09 14:02:18;;;;;;;10.77;9.87;;;14.90;99.90;;;;;;5072038;28;20541;-76
2023/10/09 14:04:46;;;;;;;11.30;10.20;;;14.90;99.90;;;;;;5072603;28;20488;-86
2023/10/09 14:07:16;;;;;;;15.90;14.50;;;14.90;99.90;;;;;;5065782;28;20940;-87
2023/10/09 14:09:54;;;;;;;17.77;15.97;;;14.80;99.90;;;;;;5068455;28;20474;-88
2023/10/09 14:12:29;;;;;;;14.70;13.40;;;14.70;99.90;;;;;;5070119;28;20516;-88
2023/10/09 14:14:56;;;;;;;11.93;10.93;;;14.70;99.90;;;;;;5074543;28;20469;-76
2023/10/09 14:17:25;;;;;;;12.80;11.60;;;14.80;99.90;;;;;;5072244;28;20559;-76
2023/10/09 14:19:52;;;;;;;14.17;12.87;;;14.80;99.90;;;;;;5070320;28;20451;-77
2023/10/09 14:22:24;;;;;;;13.87;12.53;;;14.80;99.90;;;;;;5066579;28;20466;-75
2023/10/09 14:24:55;;;;;;;10.90;9.93;;;14.80;99.90;;;;;;5070705;28;20478;-77
2023/10/09 14:27:25;;;;;;;11.13;10.10;;;14.80;99.90;;;;;;5070683;28;20472;-77
2023/10/09 14:29:56;;;;;;;12.17;10.87;;;14.80;99.90;;;;;;5072426;28;20466;-76
2023/10/09 14:32:28;;;;;;;10.80;9.90;;;14.80;99.90;;;;;;5071972;28;20794;-79
2023/10/09 14:35:00;;;;;;;12.17;10.80;;;14.80;99.90;;;;;;5072941;28;20523;-78